Time;durP1;ratioP1;P1;durP2;ratioP2;P2;SDS_P1;SDS_P2;PMS_P1;PMS_P2;Temp;Humidity;BMP_temperature;BMP_pressure;BME280_temperature;BME280_humidity;BME280_pressure;Samples;Min_cycle;Max_cycle;Signal;HPM_P1;HPM_P2
2022/07/21 00:01:01;;;;;;;4.88;4.47;;;;;;;;;;2080835;28;20479;-75
2022/07/21 00:02:20;;;;;;;5.97;4.03;;;;;;;;;;2080536;28;20026;-75
2022/07/21 00:03:39;;;;;;;5.05;3.63;;;;;;;;;;2072680;28;20034;-75
2022/07/21 00:04:57;;;;;;;4.50;4.10;;;;;;;;;;2077785;28;20449;-75
2022/07/21 00:06:16;;;;;;;5.18;4.20;;;;;;;;;;2081086;28;20034;-75
2022/07/21 00:07:35;;;;;;;5.40;4.18;;;;;;;;;;2081761;28;20025;-74
2022/07/21 00:08:54;;;;;;;5.82;5.03;;;;;;;;;;2072544;28;20022;-74
2022/07/21 00:10:13;;;;;;;5.93;4.60;;;;;;;;;;2077616;28;20108;-75
2022/07/21 00:11:33;;;;;;;6.32;5.25;;;;;;;;;;2072162;28;20026;-75
2022/07/21 00:12:52;;;;;;;6.10;4.50;;;;;;;;;;2069417;28;20026;-76
2022/07/21 00:14:11;;;;;;;5.25;4.65;;;;;;;;;;2077784;28;20085;-75
2022/07/21 00:15:30;;;;;;;5.57;4.63;;;;;;;;;;2071582;28;20057;-75
2022/07/21 00:16:49;;;;;;;5.35;4.85;;;;;;;;;;2076931;28;20060;-75
2022/07/21 00:18:08;;;;;;;5.32;4.50;;;;;;;;;;2080202;28;20030;-75
2022/07/21 00:19:26;;;;;;;4.10;3.75;;;;;;;;;;2081031;28;20491;-74
2022/07/21 00:20:45;;;;;;;7.55;3.70;;;;;;;;;;2072550;28;20030;-75
2022/07/21 00:22:04;;;;;;;5.50;4.60;;;;;;;;;;2077000;28;20030;-75
2022/07/21 00:23:24;;;;;;;4.25;3.85;;;;;;;;;;2071368;28;20026;-75
2022/07/21 00:24:42;;;;;;;7.15;4.38;;;;;;;;;;2069421;28;20030;-75
2022/07/21 00:26:02;;;;;;;4.72;4.32;;;;;;;;;;2077750;28;20034;-77
2022/07/21 00:27:20;;;;;;;6.35;4.28;;;;;;;;;;2081146;28;20037;-75
2022/07/21 00:28:39;;;;;;;5.88;4.10;;;;;;;;;;2080752;28;20037;-75
2022/07/21 00:29:59;;;;;;;4.55;4.18;;;;;;;;;;2080829;28;20022;-75
2022/07/21 00:31:18;;;;;;;5.80;4.60;;;;;;;;;;2081061;28;20025;-75
2022/07/21 00:32:37;;;;;;;5.25;4.53;;;;;;;;;;2081083;28;20041;-75
2022/07/21 00:33:56;;;;;;;6.25;4.70;;;;;;;;;;2081036;28;20026;-75
2022/07/21 00:35:15;;;;;;;4.88;4.47;;;;;;;;;;2080808;28;20041;-75
2022/07/21 00:36:34;;;;;;;5.20;4.28;;;;;;;;;;2072222;28;20041;-74
2022/07/21 00:37:53;;;;;;;6.75;5.25;;;;;;;;;;2077100;28;20104;-76
2022/07/21 00:39:12;;;;;;;7.00;4.70;;;;;;;;;;2080982;28;20030;-75
2022/07/21 00:40:31;;;;;;;6.10;4.45;;;;;;;;;;2071898;28;20117;-74
2022/07/21 00:41:49;;;;;;;4.85;4.03;;;;;;;;;;2069020;28;20034;-75
2022/07/21 00:43:08;;;;;;;4.65;4.15;;;;;;;;;;2077701;28;20100;-77
2022/07/21 00:44:27;;;;;;;4.75;4.28;;;;;;;;;;2080775;28;20038;-75
2022/07/21 00:45:46;;;;;;;5.05;4.55;;;;;;;;;;2080898;28;20026;-75
2022/07/21 00:47:05;;;;;;;6.07;4.53;;;;;;;;;;2080961;28;20030;-74
2022/07/21 00:48:24;;;;;;;5.80;5.10;;;;;;;;;;2072515;28;20030;-76
2022/07/21 00:49:44;;;;;;;8.95;4.95;;;;;;;;;;2077290;28;20053;-74
2022/07/21 00:51:03;;;;;;;6.72;5.97;;;;;;;;;;2080005;28;20026;-75
2022/07/21 00:52:23;;;;;;;8.45;6.40;;;;;;;;;;2081461;28;20123;-75
2022/07/21 00:53:42;;;;;;;6.78;6.15;;;;;;;;;;2080153;28;20124;-76
2022/07/21 00:55:02;;;;;;;7.60;6.80;;;;;;;;;;2072011;28;20033;-75
2022/07/21 00:56:21;;;;;;;8.13;7.05;;;;;;;;;;2069194;28;20026;-75
2022/07/21 00:57:40;;;;;;;6.82;6.32;;;;;;;;;;2077185;28;20041;-75
2022/07/21 00:59:00;;;;;;;10.57;6.97;;;;;;;;;;2072037;28;20034;-74
2022/07/21 01:00:21;;;;;;;7.88;6.10;;;;;;;;;;2076437;28;20030;-75
2022/07/21 01:01:40;;;;;;;9.75;6.40;;;;;;;;;;2079900;28;20037;-75
2022/07/21 01:02:59;;;;;;;6.45;5.82;;;;;;;;;;2071329;28;20034;-75
2022/07/21 01:04:18;;;;;;;6.55;5.28;;;;;;;;;;2077523;28;20029;-75
2022/07/21 01:05:37;;;;;;;8.32;5.22;;;;;;;;;;2075961;28;20507;-76
2022/07/21 01:06:56;;;;;;;10.40;5.53;;;;;;;;;;2067007;28;20026;-77
2022/07/21 01:08:15;;;;;;;6.32;5.70;;;;;;;;;;2077318;28;20026;-75
2022/07/21 01:09:35;;;;;;;5.95;5.53;;;;;;;;;;2081631;28;20025;-75
2022/07/21 01:10:54;;;;;;;5.93;5.03;;;;;;;;;;2080575;28;20041;-75
2022/07/21 01:12:13;;;;;;;6.03;5.50;;;;;;;;;;2071337;28;20030;-75
2022/07/21 01:13:32;;;;;;;6.40;5.10;;;;;;;;;;2068766;28;20026;-75
2022/07/21 01:14:51;;;;;;;6.43;5.82;;;;;;;;;;2077382;28;20038;-74
2022/07/21 01:16:11;;;;;;;5.95;5.47;;;;;;;;;;2072140;28;20030;-75
2022/07/21 01:17:29;;;;;;;8.55;6.03;;;;;;;;;;2076640;28;20038;-74
2022/07/21 01:18:48;;;;;;;8.32;5.20;;;;;;;;;;2080020;28;20414;-74
2022/07/21 01:20:09;;;;;;;5.35;4.78;;;;;;;;;;2071585;28;20026;-76
2022/07/21 01:21:31;;;;;;;6.72;4.95;;;;;;;;;;2069291;28;20499;-75
2022/07/21 01:22:52;;;;;;;5.32;4.90;;;;;;;;;;2071877;28;20042;-75
2022/07/21 01:24:11;;;;;;;5.90;5.28;;;;;;;;;;2068707;28;20061;-75
2022/07/21 01:25:30;;;;;;;6.45;5.80;;;;;;;;;;2068823;28;20034;-75
2022/07/21 01:26:50;;;;;;;6.15;5.30;;;;;;;;;;2076862;28;20017;-74
2022/07/21 01:28:09;;;;;;;6.38;5.28;;;;;;;;;;2080593;28;20042;-75
2022/07/21 01:29:28;;;;;;;5.65;5.15;;;;;;;;;;2072320;28;20026;-76
2022/07/21 01:30:47;;;;;;;8.18;5.38;;;;;;;;;;2077135;28;20033;-75
2022/07/21 01:32:06;;;;;;;4.60;4.30;;;;;;;;;;2080265;28;20038;-74
2022/07/21 01:33:25;;;;;;;6.93;5.43;;;;;;;;;;2080119;28;20025;-75
2022/07/21 01:34:44;;;;;;;5.97;5.47;;;;;;;;;;2080074;28;20440;-74
2022/07/21 01:36:03;;;;;;;6.20;5.70;;;;;;;;;;2080979;28;20030;-75
2022/07/21 01:37:23;;;;;;;7.97;6.07;;;;;;;;;;2071956;28;20026;-75
2022/07/21 01:41:58;;;;;;;5.43;4.45;;;;;;;;;;2077608;28;20042;-76
2022/07/21 01:43:17;;;;;;;6.00;4.95;;;;;;;;;;2080933;28;20033;-75
2022/07/21 01:44:36;;;;;;;4.43;4.03;;;;;;;;;;2080686;28;20026;-75
2022/07/21 01:45:55;;;;;;;5.32;3.95;;;;;;;;;;2080754;28;20462;-75
2022/07/21 01:47:14;;;;;;;4.57;4.18;;;;;;;;;;2071779;28;20034;-75
2022/07/21 01:48:33;;;;;;;5.20;4.78;;;;;;;;;;2077271;28;20100;-74
2022/07/21 01:49:52;;;;;;;4.97;4.47;;;;;;;;;;2080387;28;20093;-75
2022/07/21 01:51:11;;;;;;;6.63;4.25;;;;;;;;;;2080806;28;20057;-75
2022/07/21 01:52:30;;;;;;;8.43;4.63;;;;;;;;;;2080930;28;20057;-74
2022/07/21 01:53:49;;;;;;;4.28;3.88;;;;;;;;;;2080769;28;20120;-74
2022/07/21 01:55:08;;;;;;;6.22;4.50;;;;;;;;;;2081164;28;20033;-76
2022/07/21 01:56:27;;;;;;;6.82;4.57;;;;;;;;;;2071809;28;20022;-75
2022/07/21 01:57:46;;;;;;;4.97;4.28;;;;;;;;;;2068441;28;20033;-75
2022/07/21 01:59:05;;;;;;;5.13;4.70;;;;;;;;;;2077266;28;20064;-75
2022/07/21 02:00:24;;;;;;;5.05;4.47;;;;;;;;;;2080977;28;20065;-75
2022/07/21 02:01:43;;;;;;;4.13;3.83;;;;;;;;;;2081002;28;20030;-75
2022/07/21 02:03:02;;;;;;;5.32;4.60;;;;;;;;;;2080788;28;20029;-75
2022/07/21 02:04:21;;;;;;;7.43;4.88;;;;;;;;;;2072047;28;20034;-76
2022/07/21 02:05:40;;;;;;;4.88;4.38;;;;;;;;;;2076750;28;20497;-75
2022/07/21 02:06:59;;;;;;;7.47;4.03;;;;;;;;;;2080537;28;20820;-75
2022/07/21 02:08:18;;;;;;;5.00;4.00;;;;;;;;;;2080003;28;20026;-75
2022/07/21 02:09:36;;;;;;;5.40;4.45;;;;;;;;;;2072235;28;20018;-75
2022/07/21 02:10:55;;;;;;;6.28;4.28;;;;;;;;;;2067533;28;20495;-75
2022/07/21 02:12:14;;;;;;;5.80;4.28;;;;;;;;;;2076750;28;20030;-75
2022/07/21 02:13:33;;;;;;;4.40;3.97;;;;;;;;;;2071479;28;20415;-75
2022/07/21 02:14:53;;;;;;;7.35;4.68;;;;;;;;;;2076635;28;20030;-75
2022/07/21 02:16:12;;;;;;;4.40;3.95;;;;;;;;;;2079566;28;20057;-75
2022/07/21 02:17:31;;;;;;;4.57;3.97;;;;;;;;;;2080609;28;20124;-75
2022/07/21 02:18:50;;;;;;;4.82;4.30;;;;;;;;;;2071061;28;20033;-75
2022/07/21 02:20:10;;;;;;;9.45;4.20;;;;;;;;;;2076780;28;20033;-75
2022/07/21 02:21:29;;;;;;;5.20;4.70;;;;;;;;;;2071441;28;20231;-76
2022/07/21 02:22:48;;;;;;;6.25;4.00;;;;;;;;;;2068438;28;20029;-75
2022/07/21 02:24:07;;;;;;;4.57;4.28;;;;;;;;;;2068417;28;20022;-75
2022/07/21 02:25:26;;;;;;;5.90;4.45;;;;;;;;;;2076882;28;20077;-75
2022/07/21 02:26:45;;;;;;;5.53;4.35;;;;;;;;;;2071101;28;20387;-76
2022/07/21 02:28:04;;;;;;;7.50;4.60;;;;;;;;;;2077051;28;20033;-75
2022/07/21 02:29:23;;;;;;;4.75;4.00;;;;;;;;;;2071453;28;20030;-74
2022/07/21 02:30:42;;;;;;;4.20;3.90;;;;;;;;;;2068353;28;20061;-76
2022/07/21 02:32:01;;;;;;;5.28;4.88;;;;;;;;;;2076713;28;20030;-75
2022/07/21 02:33:20;;;;;;;8.95;4.82;;;;;;;;;;2080492;28;20045;-75
2022/07/21 02:34:39;;;;;;;4.45;4.00;;;;;;;;;;2070743;28;20042;-75
2022/07/21 02:35:58;;;;;;;5.85;4.43;;;;;;;;;;2068468;28;20026;-75
2022/07/21 02:37:16;;;;;;;9.40;4.43;;;;;;;;;;2063780;28;20054;-75
2022/07/21 02:38:35;;;;;;;8.45;4.25;;;;;;;;;;2060457;28;20054;-75
2022/07/21 02:39:55;;;;;;;5.18;4.65;;;;;;;;;;2064980;28;20030;-75
2022/07/21 02:41:13;;;;;;;5.75;3.90;;;;;;;;;;2070455;28;20037;-75
2022/07/21 02:42:32;;;;;;;5.63;4.50;;;;;;;;;;2065274;28;20117;-75
2022/07/21 02:43:51;;;;;;;5.50;4.13;;;;;;;;;;2070504;28;20447;-75
2022/07/21 02:45:10;;;;;;;5.00;4.13;;;;;;;;;;2072578;28;20030;-76
2022/07/21 02:46:29;;;;;;;6.13;4.15;;;;;;;;;;2073337;28;20053;-76
2022/07/21 02:47:51;;;;;;;4.95;4.10;;;;;;;;;;2074030;28;20042;-74
2022/07/21 02:49:10;;;;;;;10.82;4.07;;;;;;;;;;2064804;28;20069;-75
2022/07/21 02:50:30;;;;;;;5.40;3.92;;;;;;;;;;2070296;28;20387;-74
2022/07/21 02:51:49;;;;;;;6.07;4.35;;;;;;;;;;2065410;28;20072;-75
2022/07/21 02:53:19;;;;;;;4.13;3.72;;;;;;;;;;2062583;28;20030;-78
2022/07/21 02:54:38;;;;;;;8.75;4.50;;;;;;;;;;2070692;28;20483;-75
2022/07/21 02:55:57;;;;;;;8.13;3.88;;;;;;;;;;2064820;28;20043;-74
2022/07/21 02:57:15;;;;;;;4.72;4.03;;;;;;;;;;2061939;28;20022;-75
2022/07/21 02:58:34;;;;;;;4.90;4.15;;;;;;;;;;2064763;28;20038;-75
2022/07/21 02:59:53;;;;;;;7.97;4.40;;;;;;;;;;2069361;28;20042;-75
2022/07/21 03:01:12;;;;;;;5.10;3.92;;;;;;;;;;2063262;28;20057;-75
2022/07/21 03:02:31;;;;;;;5.55;3.85;;;;;;;;;;2061575;28;20019;-75
2022/07/21 03:03:49;;;;;;;5.40;3.92;;;;;;;;;;2069876;28;20034;-75
2022/07/21 03:05:08;;;;;;;4.97;4.18;;;;;;;;;;2072995;28;20042;-74
2022/07/21 03:06:27;;;;;;;4.45;3.88;;;;;;;;;;2073772;28;20034;-74
2022/07/21 03:07:46;;;;;;;4.10;3.80;;;;;;;;;;2073327;28;20030;-76
2022/07/21 03:09:05;;;;;;;4.75;4.18;;;;;;;;;;2073291;28;20116;-75
2022/07/21 03:10:24;;;;;;;4.97;4.57;;;;;;;;;;2073877;28;20113;-75
2022/07/21 03:11:43;;;;;;;8.43;4.70;;;;;;;;;;2065080;28;20062;-75
2022/07/21 03:13:02;;;;;;;4.80;4.32;;;;;;;;;;2069748;28;20034;-76
2022/07/21 03:14:21;;;;;;;5.13;3.83;;;;;;;;;;2064073;28;20455;-75
2022/07/21 03:15:40;;;;;;;4.47;4.07;;;;;;;;;;2069546;28;20034;-75
2022/07/21 03:17:00;;;;;;;4.68;4.20;;;;;;;;;;2073610;28;20427;-76
2022/07/21 03:18:19;;;;;;;4.28;3.95;;;;;;;;;;2064330;28;20042;-75
2022/07/21 03:19:39;;;;;;;5.15;4.22;;;;;;;;;;2061687;28;20504;-74
2022/07/21 03:20:58;;;;;;;6.97;4.40;;;;;;;;;;2070138;28;20050;-74
2022/07/21 03:22:17;;;;;;;4.82;4.20;;;;;;;;;;2064624;28;20412;-75
2022/07/21 03:23:35;;;;;;;4.53;4.18;;;;;;;;;;2061706;28;20061;-75
2022/07/21 03:24:54;;;;;;;4.65;4.25;;;;;;;;;;2073763;28;20022;-75
2022/07/21 03:26:14;;;;;;;4.90;4.35;;;;;;;;;;2073383;28;20034;-75
2022/07/21 03:27:36;;;;;;;6.95;4.32;;;;;;;;;;2073459;28;20487;-74
2022/07/21 03:28:55;;;;;;;4.30;3.88;;;;;;;;;;2073286;28;20030;-75
2022/07/21 03:30:14;;;;;;;4.50;4.10;;;;;;;;;;2073423;28;20038;-74
2022/07/21 03:31:33;;;;;;;4.18;3.88;;;;;;;;;;2072724;28;20022;-75
2022/07/21 03:32:52;;;;;;;4.90;3.88;;;;;;;;;;2064681;28;20030;-74
2022/07/21 03:34:11;;;;;;;5.85;4.25;;;;;;;;;;2064747;28;20244;-75
2022/07/21 03:35:31;;;;;;;4.13;3.75;;;;;;;;;;2068425;28;20046;-74
2022/07/21 03:36:50;;;;;;;4.82;4.32;;;;;;;;;;2065024;28;20075;-75
2022/07/21 03:38:09;;;;;;;5.05;4.55;;;;;;;;;;2060805;28;20026;-75
2022/07/21 03:39:28;;;;;;;4.78;4.35;;;;;;;;;;2054874;28;20023;-75
2022/07/21 03:40:46;;;;;;;4.63;3.90;;;;;;;;;;2069949;28;20645;-74
2022/07/21 03:42:05;;;;;;;4.97;4.40;;;;;;;;;;2073538;28;20034;-75
2022/07/21 03:43:24;;;;;;;4.15;3.67;;;;;;;;;;2072517;28;20136;-74
2022/07/21 03:44:43;;;;;;;5.03;4.30;;;;;;;;;;2064173;28;20030;-74
2022/07/21 03:46:02;;;;;;;4.78;4.38;;;;;;;;;;2065635;28;20098;-74
2022/07/21 03:47:21;;;;;;;5.30;4.38;;;;;;;;;;2063967;28;20034;-75
2022/07/21 03:48:39;;;;;;;5.15;4.55;;;;;;;;;;2069406;28;20026;-75
2022/07/21 03:49:58;;;;;;;6.65;4.40;;;;;;;;;;2072355;28;20101;-74
2022/07/21 03:51:17;;;;;;;4.75;4.28;;;;;;;;;;2073225;28;20034;-74
2022/07/21 03:52:36;;;;;;;7.28;4.32;;;;;;;;;;2073053;28;20037;-75
2022/07/21 03:53:55;;;;;;;5.43;4.57;;;;;;;;;;2065152;28;20117;-75
2022/07/21 03:55:17;;;;;;;4.70;4.30;;;;;;;;;;2060654;28;20407;-74
2022/07/21 03:56:36;;;;;;;4.50;4.20;;;;;;;;;;2061779;28;20031;-75
2022/07/21 03:57:56;;;;;;;7.78;4.35;;;;;;;;;;2069471;28;20030;-75
2022/07/21 03:59:15;;;;;;;4.97;4.47;;;;;;;;;;2073560;28;20041;-76
2022/07/21 04:00:35;;;;;;;4.45;4.03;;;;;;;;;;2064820;28;20038;-75
2022/07/21 04:01:54;;;;;;;4.93;4.43;;;;;;;;;;2060878;28;20026;-75
2022/07/21 04:03:13;;;;;;;4.90;4.38;;;;;;;;;;2063446;28;20042;-75
2022/07/21 04:04:31;;;;;;;4.70;4.30;;;;;;;;;;2069765;28;20053;-75
2022/07/21 04:05:50;;;;;;;5.10;4.22;;;;;;;;;;2073023;28;20045;-74
2022/07/21 04:07:09;;;;;;;6.40;4.32;;;;;;;;;;2064503;28;20418;-75
2022/07/21 04:08:28;;;;;;;6.15;4.18;;;;;;;;;;2063814;28;20520;-75
2022/07/21 04:09:47;;;;;;;4.95;4.45;;;;;;;;;;2069114;28;20030;-75
2022/07/21 04:11:06;;;;;;;5.55;3.83;;;;;;;;;;2064584;28;20070;-74
2022/07/21 04:12:28;;;;;;;8.85;4.53;;;;;;;;;;2069216;28;20030;-75
2022/07/21 04:13:47;;;;;;;6.20;4.80;;;;;;;;;;2059921;28;20031;-74
2022/07/21 04:15:07;;;;;;;4.63;4.22;;;;;;;;;;2059266;28;20058;-75
2022/07/21 04:16:27;;;;;;;5.38;3.95;;;;;;;;;;2069499;28;20064;-75
2022/07/21 04:17:45;;;;;;;5.50;4.72;;;;;;;;;;2073036;28;20034;-74
2022/07/21 04:19:05;;;;;;;5.18;4.32;;;;;;;;;;2064113;28;20956;-75
2022/07/21 04:20:23;;;;;;;6.43;4.70;;;;;;;;;;2068997;28;20030;-75
2022/07/21 04:21:42;;;;;;;6.35;4.60;;;;;;;;;;2072711;28;20599;-75
2022/07/21 04:23:02;;;;;;;5.18;4.45;;;;;;;;;;2064669;28;20034;-74
2022/07/21 04:24:21;;;;;;;4.75;4.10;;;;;;;;;;2068428;28;20029;-74
2022/07/21 04:25:40;;;;;;;5.88;4.22;;;;;;;;;;2071329;28;20407;-76
2022/07/21 04:26:59;;;;;;;5.20;4.70;;;;;;;;;;2064614;28;20038;-75
2022/07/21 04:28:18;;;;;;;6.38;4.57;;;;;;;;;;2069657;28;20483;-75
2022/07/21 04:29:37;;;;;;;5.20;4.50;;;;;;;;;;2064327;28;20046;-75
2022/07/21 04:30:56;;;;;;;6.25;4.70;;;;;;;;;;2068725;28;20034;-75
2022/07/21 04:32:15;;;;;;;4.63;3.97;;;;;;;;;;2073040;28;20030;-74
2022/07/21 04:33:35;;;;;;;4.70;4.30;;;;;;;;;;2072508;28;20070;-75
2022/07/21 04:34:53;;;;;;;4.40;4.00;;;;;;;;;;2075982;28;20037;-74
2022/07/21 04:36:12;;;;;;;4.90;4.50;;;;;;;;;;2076700;28;20042;-74
2022/07/21 04:37:31;;;;;;;5.13;4.38;;;;;;;;;;2071310;28;20037;-75
2022/07/21 04:38:50;;;;;;;5.65;4.60;;;;;;;;;;2077446;28;20399;-76
2022/07/21 04:40:10;;;;;;;4.80;4.40;;;;;;;;;;2071885;28;20021;-74
2022/07/21 04:41:29;;;;;;;5.03;4.40;;;;;;;;;;2077977;28;20403;-75
2022/07/21 04:42:47;;;;;;;5.30;4.70;;;;;;;;;;2080776;28;20029;-75
2022/07/21 04:44:06;;;;;;;5.47;4.95;;;;;;;;;;2080874;28;20026;-74
2022/07/21 04:45:25;;;;;;;5.20;4.80;;;;;;;;;;2080649;28;20108;-75
2022/07/21 04:46:44;;;;;;;4.80;4.40;;;;;;;;;;2071019;28;20030;-75
2022/07/21 04:48:03;;;;;;;5.13;4.40;;;;;;;;;;2077421;28;20057;-75
2022/07/21 04:49:22;;;;;;;5.03;4.63;;;;;;;;;;2081106;28;20029;-75
2022/07/21 04:50:41;;;;;;;5.28;4.78;;;;;;;;;;2072202;28;20041;-75
2022/07/21 04:52:00;;;;;;;6.43;4.50;;;;;;;;;;2077360;28;20038;-74
2022/07/21 04:53:19;;;;;;;6.18;4.35;;;;;;;;;;2072141;28;20105;-75
2022/07/21 04:54:38;;;;;;;4.78;4.38;;;;;;;;;;2076910;28;20033;-75
2022/07/21 04:55:57;;;;;;;5.57;4.85;;;;;;;;;;2080873;28;20386;-75
2022/07/21 04:57:16;;;;;;;4.88;4.47;;;;;;;;;;2081362;28;20038;-75
2022/07/21 04:58:34;;;;;;;5.18;4.68;;;;;;;;;;2071313;28;20033;-75
2022/07/21 04:59:53;;;;;;;5.82;5.07;;;;;;;;;;2068938;28;20037;-75
2022/07/21 05:01:12;;;;;;;5.28;4.78;;;;;;;;;;2076273;28;20049;-76
2022/07/21 05:02:31;;;;;;;4.93;4.60;;;;;;;;;;2081011;28;20100;-74
2022/07/21 05:03:50;;;;;;;5.15;4.60;;;;;;;;;;2081151;28;20037;-75
2022/07/21 05:05:09;;;;;;;5.05;4.60;;;;;;;;;;2080574;28;20045;-74
2022/07/21 05:06:28;;;;;;;5.28;4.68;;;;;;;;;;2071566;28;20392;-75
2022/07/21 05:07:47;;;;;;;5.53;4.65;;;;;;;;;;2077657;28;20125;-74
2022/07/21 05:09:06;;;;;;;4.97;4.50;;;;;;;;;;2080684;28;20029;-75
2022/07/21 05:10:25;;;;;;;5.53;4.90;;;;;;;;;;2081201;28;20022;-75
2022/07/21 05:11:44;;;;;;;4.88;4.47;;;;;;;;;;2072477;28;20108;-74
2022/07/21 05:13:03;;;;;;;5.65;4.60;;;;;;;;;;2077295;28;20071;-74
2022/07/21 05:14:22;;;;;;;8.32;4.32;;;;;;;;;;2079721;28;20394;-75
2022/07/21 05:15:40;;;;;;;4.65;4.25;;;;;;;;;;2071273;28;20041;-75
2022/07/21 05:16:59;;;;;;;6.60;5.00;;;;;;;;;;2077323;28;20034;-75
2022/07/21 05:18:18;;;;;;;5.53;5.00;;;;;;;;;;2080930;28;20053;-75
2022/07/21 05:19:37;;;;;;;5.18;4.68;;;;;;;;;;2071563;28;20065;-74
2022/07/21 05:20:56;;;;;;;5.78;5.25;;;;;;;;;;2068826;28;20030;-75
2022/07/21 05:22:16;;;;;;;5.50;5.00;;;;;;;;;;2068575;28;20030;-75
2022/07/21 05:23:35;;;;;;;7.22;4.60;;;;;;;;;;2071470;28;20026;-74
2022/07/21 05:24:54;;;;;;;6.45;4.78;;;;;;;;;;2068755;28;20034;-75
2022/07/21 05:26:13;;;;;;;5.22;4.82;;;;;;;;;;2077166;28;20025;-75
2022/07/21 05:27:31;;;;;;;5.85;5.05;;;;;;;;;;2079519;28;20105;-76
2022/07/21 05:28:50;;;;;;;9.73;5.25;;;;;;;;;;2071904;28;20515;-75
2022/07/21 05:30:09;;;;;;;5.22;4.80;;;;;;;;;;2076831;28;20034;-75
2022/07/21 05:31:28;;;;;;;5.47;5.00;;;;;;;;;;2080608;28;20034;-75
2022/07/21 05:32:47;;;;;;;5.35;4.93;;;;;;;;;;2071926;28;20446;-75
2022/07/21 05:34:06;;;;;;;7.68;4.72;;;;;;;;;;2076831;28;20022;-76
2022/07/21 05:35:25;;;;;;;5.72;5.22;;;;;;;;;;2064712;28;20042;-75
2022/07/21 05:36:44;;;;;;;7.60;4.93;;;;;;;;;;2068552;28;20041;-75
2022/07/21 05:38:03;;;;;;;5.85;4.45;;;;;;;;;;2072072;28;20038;-75
2022/07/21 05:39:22;;;;;;;5.60;5.00;;;;;;;;;;2062716;28;20038;-75
2022/07/21 05:40:41;;;;;;;5.32;4.65;;;;;;;;;;2069327;28;20419;-75
2022/07/21 05:42:00;;;;;;;5.28;4.80;;;;;;;;;;2063556;28;20069;-75
2022/07/21 05:43:19;;;;;;;5.22;4.78;;;;;;;;;;2068529;28;20019;-75
2022/07/21 05:44:38;;;;;;;5.57;4.85;;;;;;;;;;2063723;28;20038;-75
2022/07/21 05:45:57;;;;;;;6.68;4.75;;;;;;;;;;2060432;28;20062;-75
2022/07/21 05:47:16;;;;;;;6.07;5.57;;;;;;;;;;2069355;28;20038;-74
2022/07/21 05:48:35;;;;;;;6.10;5.35;;;;;;;;;;2063538;28;20102;-75
2022/07/21 05:49:54;;;;;;;6.13;5.47;;;;;;;;;;2067712;28;20491;-75
2022/07/21 05:51:13;;;;;;;6.00;5.25;;;;;;;;;;2063737;28;20046;-75
2022/07/21 05:52:33;;;;;;;6.13;5.32;;;;;;;;;;2063746;28;20035;-74
2022/07/21 05:53:51;;;;;;;5.97;5.38;;;;;;;;;;2068705;28;20415;-75
2022/07/21 05:55:11;;;;;;;5.55;5.15;;;;;;;;;;2063531;28;20030;-75
2022/07/21 05:56:30;;;;;;;6.13;5.53;;;;;;;;;;2068694;28;20499;-75
2022/07/21 05:57:49;;;;;;;6.00;5.32;;;;;;;;;;2071753;28;20042;-75
2022/07/21 05:59:08;;;;;;;6.32;5.30;;;;;;;;;;2063777;28;20034;-75
2022/07/21 06:00:27;;;;;;;5.40;4.90;;;;;;;;;;2060508;28;20054;-75
2022/07/21 06:01:46;;;;;;;6.07;5.40;;;;;;;;;;2068701;28;20022;-75
2022/07/21 06:03:05;;;;;;;5.22;4.78;;;;;;;;;;2063816;28;20035;-74
2022/07/21 06:04:24;;;;;;;5.85;5.22;;;;;;;;;;2068997;28;20408;-75
2022/07/21 06:05:43;;;;;;;7.00;5.53;;;;;;;;;;2063388;28;20026;-75
2022/07/21 06:07:02;;;;;;;5.95;5.32;;;;;;;;;;2065990;28;20487;-75
2022/07/21 06:08:20;;;;;;;5.13;4.82;;;;;;;;;;2071206;28;20042;-74
2022/07/21 06:09:39;;;;;;;6.57;4.95;;;;;;;;;;2072038;28;20030;-75
2022/07/21 06:10:58;;;;;;;5.88;5.38;;;;;;;;;;2063627;28;20412;-75
2022/07/21 06:12:17;;;;;;;7.47;5.57;;;;;;;;;;2068259;28;20030;-74
2022/07/21 06:13:36;;;;;;;9.23;5.70;;;;;;;;;;2074171;28;20464;-75
2022/07/21 06:14:55;;;;;;;8.38;5.93;;;;;;;;;;2065255;28;20038;-75
2022/07/21 06:16:14;;;;;;;9.00;5.88;;;;;;;;;;2069928;28;20072;-74
2022/07/21 06:17:40;;;;;;;6.13;5.45;;;;;;;;;;2072792;28;20041;-75
2022/07/21 06:19:01;;;;;;;8.60;5.90;;;;;;;;;;2065368;28;20545;-75
2022/07/21 06:20:20;;;;;;;9.98;5.57;;;;;;;;;;2070164;28;20038;-75
2022/07/21 06:21:40;;;;;;;8.60;5.70;;;;;;;;;;2065383;28;20038;-75
2022/07/21 06:22:59;;;;;;;7.78;5.53;;;;;;;;;;2071143;28;20519;-74
2022/07/21 06:24:21;;;;;;;9.88;6.07;;;;;;;;;;2064845;28;20030;-74
2022/07/21 06:25:40;;;;;;;9.70;5.78;;;;;;;;;;2069971;28;20496;-75
2022/07/21 06:26:59;;;;;;;8.00;5.38;;;;;;;;;;2073616;28;20041;-74
2022/07/21 06:28:18;;;;;;;9.77;5.78;;;;;;;;;;2065359;28;20137;-74
2022/07/21 06:29:37;;;;;;;11.55;6.32;;;;;;;;;;2070417;28;20038;-74
2022/07/21 06:30:56;;;;;;;11.32;5.18;;;;;;;;;;2074007;28;20037;-74
2022/07/21 06:32:15;;;;;;;14.02;6.03;;;;;;;;;;2065221;28;20030;-74
2022/07/21 06:33:34;;;;;;;10.63;5.78;;;;;;;;;;2060740;28;20038;-74
2022/07/21 06:34:53;;;;;;;6.95;5.65;;;;;;;;;;2064535;28;20092;-75
2022/07/21 06:36:11;;;;;;;7.63;5.60;;;;;;;;;;2069869;28;20082;-74
2022/07/21 06:37:30;;;;;;;8.75;5.53;;;;;;;;;;2073767;28;20041;-75
2022/07/21 06:38:49;;;;;;;6.57;5.97;;;;;;;;;;2073685;28;20467;-74
2022/07/21 06:40:08;;;;;;;6.47;5.18;;;;;;;;;;2065092;28;20084;-74
2022/07/21 06:41:28;;;;;;;9.27;6.45;;;;;;;;;;2070415;28;20042;-75
2022/07/21 06:42:47;;;;;;;8.75;5.78;;;;;;;;;;2064604;28;20034;-74
2022/07/21 06:44:06;;;;;;;9.98;5.68;;;;;;;;;;2070241;28;20034;-74
2022/07/21 06:45:25;;;;;;;7.43;6.20;;;;;;;;;;2074077;28;20025;-74
2022/07/21 06:46:43;;;;;;;8.65;6.32;;;;;;;;;;2073428;28;20030;-75
2022/07/21 06:48:03;;;;;;;9.10;5.85;;;;;;;;;;2073879;28;20030;-74
2022/07/21 06:49:22;;;;;;;10.40;6.20;;;;;;;;;;2065006;28;20030;-75
2022/07/21 06:50:41;;;;;;;6.50;6.00;;;;;;;;;;2066354;28;20037;-74
2022/07/21 06:52:00;;;;;;;5.95;5.40;;;;;;;;;;2072108;28;20482;-75
2022/07/21 06:53:19;;;;;;;8.48;5.70;;;;;;;;;;2065176;28;20129;-74
2022/07/21 06:54:37;;;;;;;6.60;6.00;;;;;;;;;;2070430;28;20045;-74
2022/07/21 06:55:56;;;;;;;6.80;6.07;;;;;;;;;;2064789;28;20034;-74
2022/07/21 06:57:15;;;;;;;6.32;5.68;;;;;;;;;;2070176;28;20037;-74
2022/07/21 06:58:35;;;;;;;5.45;5.15;;;;;;;;;;2073563;28;20695;-74
2022/07/21 06:59:54;;;;;;;5.85;5.22;;;;;;;;;;2073470;28;20030;-74
2022/07/21 07:01:16;;;;;;;6.78;6.10;;;;;;;;;;2073542;28;20106;-73
2022/07/21 07:02:35;;;;;;;6.40;5.93;;;;;;;;;;2064963;28;20054;-74
2022/07/21 07:03:54;;;;;;;6.07;5.50;;;;;;;;;;2069766;28;20491;-76
2022/07/21 07:05:13;;;;;;;8.88;6.07;;;;;;;;;;2073862;28;20026;-74
2022/07/21 07:06:32;;;;;;;8.45;5.97;;;;;;;;;;2065180;28;20050;-75
2022/07/21 07:07:50;;;;;;;7.10;5.97;;;;;;;;;;2069792;28;20046;-74
2022/07/21 07:09:09;;;;;;;12.35;6.45;;;;;;;;;;2064118;28;20030;-75
2022/07/21 07:10:28;;;;;;;9.15;5.88;;;;;;;;;;2061867;28;20027;-74
2022/07/21 07:11:47;;;;;;;7.93;5.93;;;;;;;;;;2066328;28;20037;-74
2022/07/21 07:13:06;;;;;;;7.13;5.97;;;;;;;;;;2070797;28;20484;-74
2022/07/21 07:14:25;;;;;;;8.38;5.93;;;;;;;;;;2073128;28;20080;-75
2022/07/21 07:15:44;;;;;;;6.65;5.78;;;;;;;;;;2072017;28;20395;-74
2022/07/21 07:17:03;;;;;;;6.43;5.85;;;;;;;;;;2064733;28;20018;-74
2022/07/21 07:18:24;;;;;;;6.95;6.13;;;;;;;;;;2058628;28;20027;-74
2022/07/21 07:19:42;;;;;;;7.43;5.68;;;;;;;;;;2060519;28;20034;-74
2022/07/21 07:21:01;;;;;;;6.75;5.85;;;;;;;;;;2065748;28;20030;-73
2022/07/21 07:22:20;;;;;;;6.57;5.45;;;;;;;;;;2071765;28;20038;-74
2022/07/21 07:23:39;;;;;;;6.28;5.82;;;;;;;;;;2072064;28;20034;-74
2022/07/21 07:24:58;;;;;;;8.40;6.15;;;;;;;;;;2072791;28;20053;-74
2022/07/21 07:26:16;;;;;;;6.53;6.03;;;;;;;;;;2073336;28;20034;-74
2022/07/21 07:27:35;;;;;;;8.10;5.97;;;;;;;;;;2065029;28;20038;-74
2022/07/21 07:28:54;;;;;;;8.63;5.80;;;;;;;;;;2066924;28;20038;-74
2022/07/21 07:30:14;;;;;;;6.25;5.75;;;;;;;;;;2072028;28;20033;-74
2022/07/21 07:31:32;;;;;;;10.05;6.22;;;;;;;;;;2064689;28;20042;-75
2022/07/21 07:32:51;;;;;;;8.45;5.80;;;;;;;;;;2061142;28;20026;-74
2022/07/21 07:34:10;;;;;;;6.05;5.60;;;;;;;;;;2070119;28;20030;-74
2022/07/21 07:35:29;;;;;;;6.60;5.97;;;;;;;;;;2079772;28;20503;-75
2022/07/21 07:36:48;;;;;;;6.55;5.82;;;;;;;;;;2081329;28;20491;-75
2022/07/21 07:38:11;;;;;;;6.75;5.80;;;;;;;;;;2072720;28;20026;-74
2022/07/21 07:39:30;;;;;;;;;;;;;;;;;;2078502;28;20041;-74
2022/07/21 07:40:49;;;;;;;6.80;6.20;;;;;;;;;;2081341;28;19913;-76
2022/07/21 07:42:08;;;;;;;6.97;5.82;;;;;;;;;;2081590;28;20104;-76
2022/07/21 07:43:27;;;;;;;6.07;5.60;;;;;;;;;;2072934;28;20026;-75
2022/07/21 07:44:47;;;;;;;6.72;6.10;;;;;;;;;;2072911;28;20018;-75
2022/07/21 07:46:07;;;;;;;6.68;6.05;;;;;;;;;;2080147;28;20026;-74
2022/07/21 07:47:27;;;;;;;7.72;6.03;;;;;;;;;;2077675;28;20026;-76
2022/07/21 07:48:47;;;;;;;11.52;6.22;;;;;;;;;;2079619;28;20057;-75
2022/07/21 07:50:08;;;;;;;6.55;5.95;;;;;;;;;;2081779;28;20034;-74
2022/07/21 07:51:26;;;;;;;6.38;5.72;;;;;;;;;;2081630;28;20029;-74
2022/07/21 07:52:46;;;;;;;7.00;5.90;;;;;;;;;;2080979;28;20427;-76
2022/07/21 07:54:05;;;;;;;6.47;5.80;;;;;;;;;;2072384;28;20038;-74
2022/07/21 07:55:23;;;;;;;8.50;6.18;;;;;;;;;;2077795;28;20033;-75
2022/07/21 07:56:42;;;;;;;6.35;5.95;;;;;;;;;;2082269;28;20033;-75
2022/07/21 07:58:02;;;;;;;6.93;6.20;;;;;;;;;;2076377;28;20030;-75